EXS2UN EGBB-LGSR
Flight info
| Callsign | EXS2UN |
|---|---|
| Flight time | 3h 41m |
| Altitude | 33000 |
| Route | DTY UM605 FINMA L15 BIG L607 KONAN UL607 KOK M150 GEBDA/N0439F340 Y173 PABLA/N0438F330 Z721 UTABA DCT GEDSO DCT OGODI/N0445F350 DCT KOREX DCT GLOMY DCT RETRA DCT BITLA UN132 TUXEM UT514 PEXAN |
| Aircraft | B738/M-SDE2E3FGHIRWXY/LB1 |
Departure
| Time | 2026-05-01 08:50 |
|---|---|
| Airport | Birmingham Airport (EGBB) |
Arrival
| Time | 2026-05-01 12:32 |
|---|---|
| Airport | Santorini International Airport (LGSR) |
| Time | Latitude | Longitude | Altitude | Speed | Heading |
|---|---|---|---|---|---|
| 2026-05-01 08:29 | 52.45060 | -1.73267 | 321 ft | 0 kts | 326° |
| 2026-05-01 08:40 | 52.45046 | -1.73251 | 321 ft | 4 kts | 319° |
| 2026-05-01 08:40 | 52.45030 | -1.73219 | 320 ft | 4 kts | 282° |
| 2026-05-01 08:40 | 52.45028 | -1.73205 | 319 ft | 4 kts | 256° |
| 2026-05-01 08:41 | 52.45013 | -1.73236 | 322 ft | 2 kts | 236° |
| 2026-05-01 08:41 | 52.45013 | -1.73238 | 322 ft | 0 kts | 236° |
| 2026-05-01 08:42 | 52.45012 | -1.73238 | 322 ft | 0 kts | 236° |
| 2026-05-01 08:43 | 52.45005 | -1.73256 | 322 ft | 4 kts | 236° |
| 2026-05-01 08:43 | 52.44977 | -1.73324 | 322 ft | 10 kts | 236° |
| 2026-05-01 08:43 | 52.44948 | -1.73393 | 322 ft | 10 kts | 236° |
| 2026-05-01 08:43 | 52.44902 | -1.73508 | 322 ft | 13 kts | 244° |
| 2026-05-01 08:44 | 52.44932 | -1.73630 | 322 ft | 13 kts | 326° |
| 2026-05-01 08:44 | 52.45005 | -1.73712 | 322 ft | 13 kts | 325° |
| 2026-05-01 08:44 | 52.45085 | -1.73766 | 322 ft | 12 kts | 346° |
| 2026-05-01 08:44 | 52.45158 | -1.73839 | 322 ft | 12 kts | 325° |
| 2026-05-01 08:45 | 52.45230 | -1.73919 | 321 ft | 13 kts | 326° |
| 2026-05-01 08:45 | 52.45306 | -1.74022 | 322 ft | 15 kts | 300° |
| 2026-05-01 08:45 | 52.45356 | -1.74189 | 322 ft | 17 kts | 297° |
| 2026-05-01 08:45 | 52.45409 | -1.74355 | 322 ft | 16 kts | 296° |
| 2026-05-01 08:46 | 52.45457 | -1.74517 | 322 ft | 16 kts | 296° |
| 2026-05-01 08:46 | 52.45534 | -1.74639 | 322 ft | 16 kts | 326° |
| 2026-05-01 08:46 | 52.45640 | -1.74757 | 316 ft | 21 kts | 326° |
| 2026-05-01 08:46 | 52.45772 | -1.74904 | 307 ft | 25 kts | 326° |
| 2026-05-01 08:47 | 52.45915 | -1.75063 | 307 ft | 24 kts | 326° |
| 2026-05-01 08:47 | 52.46049 | -1.75211 | 305 ft | 23 kts | 326° |
| 2026-05-01 08:47 | 52.46179 | -1.75355 | 302 ft | 22 kts | 326° |
| 2026-05-01 08:47 | 52.46305 | -1.75496 | 301 ft | 22 kts | 326° |
| 2026-05-01 08:48 | 52.46427 | -1.75632 | 300 ft | 21 kts | 326° |
| 2026-05-01 08:48 | 52.46545 | -1.75764 | 303 ft | 20 kts | 326° |
| 2026-05-01 08:48 | 52.46635 | -1.75873 | 309 ft | 12 kts | 299° |
| 2026-05-01 08:48 | 52.46617 | -1.75964 | 305 ft | 8 kts | 234° |
| 2026-05-01 08:49 | 52.46583 | -1.76041 | 304 ft | 8 kts | 234° |
| 2026-05-01 08:49 | 52.46549 | -1.76094 | 309 ft | 4 kts | 160° |
| 2026-05-01 08:49 | 52.46544 | -1.76089 | 308 ft | 0 kts | 145° |
| 2026-05-01 08:49 | 52.46518 | -1.76060 | 307 ft | 24 kts | 146° |
| 2026-05-01 08:50 | 52.46185 | -1.75690 | 309 ft | 91 kts | 146° |
| 2026-05-01 08:50 | 52.45497 | -1.74925 | 321 ft | 146 kts | 146° |
| 2026-05-01 08:50 | 52.44542 | -1.73864 | 539 ft | 177 kts | 146° |
| 2026-05-01 08:50 | 52.43520 | -1.72725 | 1323 ft | 178 kts | 146° |
| 2026-05-01 08:51 | 52.42492 | -1.71575 | 2108 ft | 183 kts | 148° |
| 2026-05-01 08:51 | 52.41356 | -1.70345 | 2359 ft | 207 kts | 154° |
| 2026-05-01 08:51 | 52.39971 | -1.69628 | 2774 ft | 215 kts | 168° |
| 2026-05-01 08:51 | 52.38495 | -1.69052 | 3421 ft | 219 kts | 166° |
| 2026-05-01 08:52 | 52.37072 | -1.68163 | 4194 ft | 219 kts | 154° |
| 2026-05-01 08:52 | 52.35764 | -1.66797 | 4753 ft | 233 kts | 140° |
| 2026-05-01 08:52 | 52.34569 | -1.64802 | 5074 ft | 254 kts | 135° |
| 2026-05-01 08:52 | 52.33355 | -1.62660 | 5752 ft | 259 kts | 135° |
| 2026-05-01 08:53 | 52.32125 | -1.60490 | 6528 ft | 261 kts | 135° |
| 2026-05-01 08:53 | 52.30883 | -1.58312 | 7271 ft | 264 kts | 136° |
| 2026-05-01 08:53 | 52.29620 | -1.56113 | 7999 ft | 266 kts | 136° |
| 2026-05-01 08:53 | 52.28338 | -1.53895 | 8737 ft | 269 kts | 136° |
| 2026-05-01 08:54 | 52.27045 | -1.51668 | 9460 ft | 272 kts | 136° |
| 2026-05-01 08:54 | 52.25735 | -1.49421 | 10189 ft | 275 kts | 136° |
| 2026-05-01 08:54 | 52.24395 | -1.47130 | 10618 ft | 288 kts | 136° |
| 2026-05-01 08:54 | 52.22823 | -1.44926 | 10764 ft | 307 kts | 147° |
| 2026-05-01 08:55 | 52.20968 | -1.42969 | 10975 ft | 326 kts | 149° |
| 2026-05-01 08:55 | 52.19017 | -1.41011 | 11489 ft | 333 kts | 150° |
| 2026-05-01 08:55 | 52.17032 | -1.39036 | 12211 ft | 335 kts | 150° |
| 2026-05-01 08:55 | 52.15712 | -1.37726 | 12690 ft | 335 kts | 150° |
| 2026-05-01 08:56 | 52.13713 | -1.35743 | 13405 ft | 338 kts | 150° |
| 2026-05-01 08:56 | 52.11700 | -1.33746 | 14098 ft | 340 kts | 150° |
| 2026-05-01 08:56 | 52.09675 | -1.31732 | 14699 ft | 342 kts | 150° |
| 2026-05-01 08:56 | 52.07632 | -1.29701 | 15286 ft | 346 kts | 150° |
| 2026-05-01 08:57 | 52.05570 | -1.27654 | 15857 ft | 349 kts | 150° |
| 2026-05-01 08:57 | 52.03485 | -1.25589 | 16432 ft | 352 kts | 150° |
| 2026-05-01 08:57 | 52.01383 | -1.23515 | 16968 ft | 356 kts | 150° |
| 2026-05-01 08:57 | 51.99257 | -1.21427 | 17553 ft | 359 kts | 150° |
| 2026-05-01 08:58 | 51.97200 | -1.19101 | 18106 ft | 364 kts | 141° |
| 2026-05-01 08:58 | 51.95403 | -1.16171 | 18630 ft | 369 kts | 133° |
| 2026-05-01 08:58 | 51.93756 | -1.12949 | 19133 ft | 372 kts | 131° |
| 2026-05-01 08:58 | 51.92137 | -1.09735 | 19642 ft | 374 kts | 131° |
| 2026-05-01 08:59 | 51.90491 | -1.06465 | 20147 ft | 376 kts | 131° |
| 2026-05-01 08:59 | 51.88829 | -1.03175 | 20637 ft | 378 kts | 131° |
| 2026-05-01 08:59 | 51.87150 | -0.99871 | 21120 ft | 380 kts | 132° |
| 2026-05-01 08:59 | 51.85457 | -0.96553 | 21578 ft | 383 kts | 132° |
| 2026-05-01 09:00 | 51.83749 | -0.93220 | 22020 ft | 386 kts | 132° |
| 2026-05-01 09:00 | 51.82022 | -0.89859 | 22476 ft | 388 kts | 132° |
| 2026-05-01 09:00 | 51.80292 | -0.86497 | 22941 ft | 391 kts | 132° |
| 2026-05-01 09:00 | 51.78570 | -0.83155 | 23477 ft | 391 kts | 132° |
| 2026-05-01 09:01 | 51.76825 | -0.79776 | 23932 ft | 392 kts | 132° |
| 2026-05-01 09:01 | 51.75071 | -0.76383 | 24270 ft | 395 kts | 132° |
| 2026-05-01 09:01 | 51.73303 | -0.72968 | 24606 ft | 397 kts | 132° |
| 2026-05-01 09:01 | 51.71532 | -0.69551 | 24969 ft | 399 kts | 132° |
| 2026-05-01 09:02 | 51.69739 | -0.66097 | 25335 ft | 401 kts | 132° |
| 2026-05-01 09:02 | 51.67946 | -0.62647 | 25685 ft | 403 kts | 132° |
| 2026-05-01 09:02 | 51.66132 | -0.59162 | 26029 ft | 405 kts | 132° |
| 2026-05-01 09:02 | 51.64319 | -0.55684 | 26365 ft | 407 kts | 132° |
| 2026-05-01 09:03 | 51.62611 | -0.52013 | 26671 ft | 412 kts | 123° |
| 2026-05-01 09:03 | 51.61339 | -0.47852 | 27013 ft | 418 kts | 115° |
| 2026-05-01 09:03 | 51.60484 | -0.43415 | 27342 ft | 423 kts | 107° |
| 2026-05-01 09:03 | 51.59796 | -0.38752 | 27654 ft | 425 kts | 107° |
| 2026-05-01 09:04 | 51.59131 | -0.34193 | 27934 ft | 428 kts | 107° |
| 2026-05-01 09:04 | 51.58445 | -0.29518 | 28215 ft | 430 kts | 107° |
| 2026-05-01 09:04 | 51.57761 | -0.24913 | 28509 ft | 432 kts | 107° |
| 2026-05-01 09:04 | 51.57056 | -0.20217 | 28810 ft | 433 kts | 108° |
| 2026-05-01 09:05 | 51.56339 | -0.15498 | 29095 ft | 435 kts | 108° |
| 2026-05-01 09:05 | 51.55612 | -0.10748 | 29351 ft | 438 kts | 108° |
| 2026-05-01 09:05 | 51.54881 | -0.05999 | 29612 ft | 439 kts | 108° |
| 2026-05-01 09:05 | 51.54144 | -0.01225 | 29891 ft | 441 kts | 108° |
| 2026-05-01 09:06 | 51.53406 | 0.03538 | 30310 ft | 438 kts | 108° |
| 2026-05-01 09:06 | 51.52672 | 0.08270 | 30742 ft | 434 kts | 108° |
| 2026-05-01 09:06 | 51.51942 | 0.12965 | 31038 ft | 434 kts | 108° |
| 2026-05-01 09:06 | 51.51204 | 0.17683 | 31253 ft | 436 kts | 108° |
| 2026-05-01 09:07 | 51.50464 | 0.22399 | 31499 ft | 436 kts | 108° |
| 2026-05-01 09:07 | 51.49722 | 0.27116 | 31808 ft | 435 kts | 108° |
| 2026-05-01 09:07 | 51.48982 | 0.31813 | 32109 ft | 434 kts | 108° |
| 2026-05-01 09:07 | 51.48239 | 0.36512 | 32369 ft | 434 kts | 108° |
| 2026-05-01 09:08 | 51.47495 | 0.41204 | 32611 ft | 434 kts | 108° |
| 2026-05-01 09:08 | 51.46747 | 0.45910 | 32887 ft | 434 kts | 109° |
| 2026-05-01 09:08 | 51.46010 | 0.50529 | 33131 ft | 434 kts | 109° |
| 2026-05-01 09:08 | 51.45260 | 0.55220 | 33320 ft | 435 kts | 109° |
| 2026-05-01 09:09 | 51.44506 | 0.59920 | 33553 ft | 435 kts | 109° |
| 2026-05-01 09:09 | 51.43754 | 0.64601 | 33842 ft | 434 kts | 109° |
| 2026-05-01 09:09 | 51.43000 | 0.69279 | 34114 ft | 433 kts | 109° |
| 2026-05-01 09:09 | 51.42246 | 0.73945 | 34330 ft | 433 kts | 109° |
| 2026-05-01 09:10 | 51.41488 | 0.78616 | 34492 ft | 433 kts | 109° |
| 2026-05-01 09:10 | 51.40735 | 0.83249 | 34657 ft | 434 kts | 109° |
| 2026-05-01 09:10 | 51.39990 | 0.87815 | 34854 ft | 434 kts | 109° |
| 2026-05-01 09:10 | 51.39250 | 0.92342 | 35048 ft | 433 kts | 109° |
| 2026-05-01 09:11 | 51.38485 | 0.97009 | 35190 ft | 434 kts | 108° |
| 2026-05-01 09:11 | 51.37712 | 1.01709 | 35218 ft | 437 kts | 108° |
| 2026-05-01 09:11 | 51.36168 | 1.11063 | 35224 ft | 436 kts | 108° |
| 2026-05-01 09:12 | 51.34778 | 1.19450 | 35237 ft | 434 kts | 108° |
| 2026-05-01 09:12 | 51.33225 | 1.28766 | 35238 ft | 432 kts | 108° |
| 2026-05-01 09:13 | 51.31699 | 1.37864 | 35234 ft | 430 kts | 108° |
| 2026-05-01 09:13 | 51.30188 | 1.46827 | 35226 ft | 428 kts | 108° |
| 2026-05-01 09:14 | 51.28876 | 1.54574 | 35233 ft | 428 kts | 108° |
| 2026-05-01 09:14 | 51.27312 | 1.63762 | 35234 ft | 429 kts | 108° |
| 2026-05-01 09:15 | 51.25731 | 1.72995 | 35238 ft | 431 kts | 108° |
| 2026-05-01 09:15 | 51.24149 | 1.82192 | 35238 ft | 433 kts | 108° |
| 2026-05-01 09:16 | 51.22544 | 1.91477 | 35226 ft | 435 kts | 108° |
| 2026-05-01 09:17 | 51.20111 | 2.05456 | 35242 ft | 437 kts | 108° |
| 2026-05-01 09:17 | 51.17649 | 2.19495 | 35241 ft | 439 kts | 108° |
| 2026-05-01 09:18 | 51.15168 | 2.33530 | 35247 ft | 439 kts | 108° |
| 2026-05-01 09:19 | 51.12669 | 2.47558 | 35247 ft | 438 kts | 108° |
| 2026-05-01 09:20 | 51.10163 | 2.61525 | 35252 ft | 436 kts | 108° |
| 2026-05-01 09:20 | 51.07910 | 2.70397 | 35271 ft | 432 kts | 120° |
| 2026-05-01 09:21 | 51.05062 | 2.78807 | 35260 ft | 431 kts | 120° |
| 2026-05-01 09:21 | 51.00792 | 2.91383 | 35258 ft | 431 kts | 120° |
| 2026-05-01 09:22 | 50.95155 | 3.08146 | 35260 ft | 432 kts | 120° |
| 2026-05-01 09:23 | 50.90893 | 3.20783 | 35260 ft | 433 kts | 120° |
| 2026-05-01 09:24 | 50.86626 | 3.33364 | 35250 ft | 434 kts | 120° |
| 2026-05-01 09:25 | 50.80879 | 3.50211 | 35255 ft | 436 kts | 120° |
| 2026-05-01 09:26 | 50.76541 | 3.62855 | 35260 ft | 436 kts | 120° |
| 2026-05-01 09:26 | 50.72182 | 3.75494 | 35261 ft | 437 kts | 120° |
| 2026-05-01 09:27 | 50.67814 | 3.88096 | 35262 ft | 436 kts | 120° |
| 2026-05-01 09:28 | 50.64913 | 3.96433 | 35266 ft | 436 kts | 120° |
| 2026-05-01 09:28 | 50.61998 | 4.04782 | 35276 ft | 435 kts | 120° |
| 2026-05-01 09:29 | 50.57616 | 4.17281 | 35284 ft | 434 kts | 120° |
| 2026-05-01 09:30 | 50.53230 | 4.29731 | 35287 ft | 433 kts | 120° |
| 2026-05-01 09:30 | 50.48837 | 4.42139 | 35295 ft | 432 kts | 120° |
| 2026-05-01 09:31 | 50.45906 | 4.50386 | 35291 ft | 432 kts | 120° |
| 2026-05-01 09:32 | 50.41524 | 4.62663 | 35290 ft | 431 kts | 120° |
| 2026-05-01 09:32 | 50.37111 | 4.74968 | 35274 ft | 432 kts | 120° |
| 2026-05-01 09:33 | 50.34160 | 4.83165 | 35290 ft | 432 kts | 120° |
| 2026-05-01 09:34 | 50.29712 | 4.95471 | 35284 ft | 433 kts | 120° |
| 2026-05-01 09:34 | 50.25264 | 5.07716 | 35276 ft | 434 kts | 120° |
| 2026-05-01 09:35 | 50.20776 | 5.20018 | 35288 ft | 435 kts | 120° |
| 2026-05-01 09:36 | 50.17771 | 5.28223 | 35282 ft | 435 kts | 120° |
| 2026-05-01 09:36 | 50.14755 | 5.36434 | 35286 ft | 436 kts | 120° |
| 2026-05-01 09:37 | 50.11728 | 5.44628 | 35292 ft | 436 kts | 120° |
| 2026-05-01 09:37 | 50.07161 | 5.56931 | 35290 ft | 437 kts | 120° |
| 2026-05-01 09:38 | 50.02603 | 5.69165 | 35292 ft | 438 kts | 120° |
| 2026-05-01 09:39 | 49.98006 | 5.81447 | 35294 ft | 438 kts | 121° |
| 2026-05-01 09:39 | 49.94933 | 5.89627 | 35291 ft | 438 kts | 121° |
| 2026-05-01 09:40 | 49.90317 | 6.01862 | 35306 ft | 437 kts | 120° |
| 2026-05-01 09:41 | 49.87241 | 6.09992 | 35304 ft | 437 kts | 120° |
| 2026-05-01 09:41 | 49.83318 | 6.20950 | 35312 ft | 437 kts | 117° |
| 2026-05-01 09:42 | 49.80103 | 6.30680 | 35307 ft | 437 kts | 117° |
| 2026-05-01 09:43 | 49.74925 | 6.45970 | 35308 ft | 437 kts | 117° |
| 2026-05-01 09:43 | 49.72081 | 6.54289 | 35305 ft | 438 kts | 117° |
| 2026-05-01 09:44 | 49.67796 | 6.66754 | 35290 ft | 438 kts | 117° |
| 2026-05-01 09:45 | 49.64928 | 6.75067 | 35294 ft | 438 kts | 117° |
| 2026-05-01 09:45 | 49.60607 | 6.87548 | 35308 ft | 440 kts | 117° |
| 2026-05-01 09:46 | 49.57737 | 6.95805 | 35299 ft | 441 kts | 117° |
| 2026-05-01 09:46 | 49.54830 | 7.04144 | 35320 ft | 442 kts | 117° |
| 2026-05-01 09:47 | 49.51908 | 7.12496 | 35325 ft | 443 kts | 117° |
| 2026-05-01 09:47 | 49.48979 | 7.20839 | 35323 ft | 444 kts | 117° |
| 2026-05-01 09:48 | 49.46038 | 7.29193 | 35315 ft | 444 kts | 117° |
| 2026-05-01 09:48 | 49.43093 | 7.37530 | 35321 ft | 444 kts | 117° |
| 2026-05-01 09:49 | 49.40158 | 7.45812 | 35322 ft | 443 kts | 117° |
| 2026-05-01 09:49 | 49.37203 | 7.54123 | 35322 ft | 443 kts | 117° |
| 2026-05-01 09:50 | 49.34244 | 7.62419 | 35316 ft | 442 kts | 117° |
| 2026-05-01 09:50 | 49.31285 | 7.70692 | 35325 ft | 442 kts | 116° |
| 2026-05-01 09:51 | 49.28326 | 7.78941 | 35322 ft | 441 kts | 117° |
| 2026-05-01 09:51 | 49.25363 | 7.87167 | 35323 ft | 441 kts | 117° |
| 2026-05-01 09:52 | 49.22415 | 7.95324 | 35332 ft | 440 kts | 117° |
| 2026-05-01 09:52 | 49.19443 | 8.03524 | 35331 ft | 441 kts | 117° |
| 2026-05-01 09:53 | 49.16464 | 8.11726 | 35329 ft | 441 kts | 117° |
| 2026-05-01 09:53 | 49.13475 | 8.19930 | 35325 ft | 442 kts | 117° |
| 2026-05-01 09:54 | 49.09668 | 8.27246 | 35343 ft | 447 kts | 145° |
| 2026-05-01 09:54 | 49.06882 | 8.29381 | 35309 ft | 451 kts | 162° |
| 2026-05-01 09:54 | 49.03796 | 8.30316 | 35352 ft | 452 kts | 171° |
| 2026-05-01 09:55 | 48.97528 | 8.31460 | 35333 ft | 454 kts | 172° |
| 2026-05-01 09:55 | 48.91248 | 8.32702 | 35309 ft | 455 kts | 166° |
| 2026-05-01 09:56 | 48.88311 | 8.34241 | 35322 ft | 451 kts | 149° |
| 2026-05-01 09:56 | 48.85740 | 8.36926 | 35328 ft | 447 kts | 136° |
| 2026-05-01 09:56 | 48.81692 | 8.44023 | 35336 ft | 445 kts | 127° |
| 2026-05-01 09:57 | 48.77803 | 8.51380 | 35325 ft | 446 kts | 127° |
| 2026-05-01 09:57 | 48.73873 | 8.58695 | 35322 ft | 447 kts | 127° |
| 2026-05-01 09:58 | 48.69927 | 8.65951 | 35326 ft | 447 kts | 127° |
| 2026-05-01 09:58 | 48.65987 | 8.73158 | 35338 ft | 447 kts | 127° |
| 2026-05-01 09:59 | 48.62016 | 8.80403 | 35340 ft | 446 kts | 127° |
| 2026-05-01 09:59 | 48.58049 | 8.87624 | 35335 ft | 446 kts | 127° |
| 2026-05-01 10:00 | 48.54083 | 8.94825 | 35337 ft | 446 kts | 127° |
| 2026-05-01 10:00 | 48.50127 | 9.01989 | 35327 ft | 446 kts | 127° |
| 2026-05-01 10:01 | 48.46152 | 9.09168 | 35327 ft | 446 kts | 128° |
| 2026-05-01 10:01 | 48.42169 | 9.16342 | 35336 ft | 446 kts | 127° |
| 2026-05-01 10:02 | 48.38179 | 9.23510 | 35322 ft | 447 kts | 127° |
| 2026-05-01 10:02 | 48.34182 | 9.30670 | 35330 ft | 447 kts | 127° |
| 2026-05-01 10:03 | 48.30184 | 9.37818 | 35331 ft | 447 kts | 127° |
| 2026-05-01 10:03 | 48.26196 | 9.44924 | 35331 ft | 447 kts | 127° |
| 2026-05-01 10:04 | 48.22482 | 9.52359 | 35347 ft | 445 kts | 122° |
| 2026-05-01 10:04 | 48.18962 | 9.59985 | 35340 ft | 445 kts | 121° |
| 2026-05-01 10:05 | 48.15439 | 9.67599 | 35345 ft | 445 kts | 122° |
| 2026-05-01 10:05 | 48.11882 | 9.75196 | 35345 ft | 445 kts | 122° |
| 2026-05-01 10:06 | 48.08311 | 9.82767 | 35347 ft | 445 kts | 122° |
| 2026-05-01 10:06 | 48.04757 | 9.90273 | 35351 ft | 445 kts | 121° |
| 2026-05-01 10:07 | 48.01175 | 9.97820 | 35346 ft | 445 kts | 122° |
| 2026-05-01 10:07 | 47.97592 | 10.05349 | 35343 ft | 445 kts | 122° |
| 2026-05-01 10:08 | 47.92205 | 10.16629 | 35346 ft | 444 kts | 122° |
| 2026-05-01 10:09 | 47.88618 | 10.24114 | 35357 ft | 444 kts | 121° |
| 2026-05-01 10:09 | 47.85024 | 10.31596 | 35327 ft | 444 kts | 121° |
| 2026-05-01 10:10 | 47.81424 | 10.39067 | 35324 ft | 444 kts | 121° |
| 2026-05-01 10:10 | 47.76012 | 10.50261 | 35323 ft | 444 kts | 121° |
| 2026-05-01 10:11 | 47.72402 | 10.57703 | 35334 ft | 444 kts | 121° |
| 2026-05-01 10:11 | 47.68782 | 10.65145 | 35318 ft | 444 kts | 121° |
| 2026-05-01 10:12 | 47.65770 | 10.71321 | 35317 ft | 444 kts | 121° |
| 2026-05-01 10:13 | 47.59732 | 10.83662 | 35324 ft | 444 kts | 121° |
| 2026-05-01 10:13 | 47.56096 | 10.91068 | 35325 ft | 445 kts | 121° |
| 2026-05-01 10:14 | 47.50612 | 11.02198 | 35326 ft | 445 kts | 121° |
| 2026-05-01 10:14 | 47.46963 | 11.09578 | 35336 ft | 444 kts | 121° |
| 2026-05-01 10:15 | 47.43334 | 11.16898 | 35333 ft | 445 kts | 121° |
| 2026-05-01 10:15 | 47.39674 | 11.24263 | 35333 ft | 444 kts | 121° |
| 2026-05-01 10:16 | 47.36017 | 11.31602 | 35365 ft | 444 kts | 121° |
| 2026-05-01 10:17 | 47.30527 | 11.42580 | 35349 ft | 441 kts | 121° |
| 2026-05-01 10:17 | 47.25063 | 11.53466 | 35356 ft | 440 kts | 121° |
| 2026-05-01 10:18 | 47.19588 | 11.64333 | 35383 ft | 441 kts | 120° |
| 2026-05-01 10:19 | 47.15946 | 11.71538 | 35361 ft | 442 kts | 120° |
| 2026-05-01 10:19 | 47.12269 | 11.78793 | 35356 ft | 443 kts | 120° |
| 2026-05-01 10:20 | 47.06720 | 11.89675 | 35343 ft | 445 kts | 121° |
| 2026-05-01 10:20 | 47.02925 | 11.96867 | 35335 ft | 446 kts | 121° |
| 2026-05-01 10:21 | 46.97231 | 12.07561 | 35333 ft | 444 kts | 121° |
| 2026-05-01 10:22 | 46.91550 | 12.18237 | 35340 ft | 442 kts | 121° |
| 2026-05-01 10:23 | 46.85878 | 12.28873 | 35370 ft | 442 kts | 121° |
| 2026-05-01 10:23 | 46.80185 | 12.39506 | 35381 ft | 442 kts | 121° |
| 2026-05-01 10:24 | 46.72588 | 12.53629 | 35363 ft | 442 kts | 121° |
| 2026-05-01 10:25 | 46.65002 | 12.67661 | 35352 ft | 443 kts | 121° |
| 2026-05-01 10:26 | 46.61163 | 12.74732 | 35335 ft | 442 kts | 121° |
| 2026-05-01 10:27 | 46.53563 | 12.88685 | 35337 ft | 442 kts | 121° |
| 2026-05-01 10:28 | 46.48474 | 12.97986 | 35344 ft | 441 kts | 121° |
| 2026-05-01 10:28 | 46.42722 | 13.08463 | 35371 ft | 442 kts | 121° |
| 2026-05-01 10:29 | 46.36964 | 13.18912 | 35367 ft | 442 kts | 121° |
| 2026-05-01 10:30 | 46.29275 | 13.32802 | 35412 ft | 440 kts | 121° |
| 2026-05-01 10:31 | 46.21632 | 13.46541 | 35370 ft | 438 kts | 121° |
| 2026-05-01 10:32 | 46.15898 | 13.56808 | 35391 ft | 437 kts | 121° |
| 2026-05-01 10:33 | 46.08211 | 13.70515 | 35384 ft | 441 kts | 121° |
| 2026-05-01 10:34 | 46.02398 | 13.80832 | 35373 ft | 442 kts | 121° |
| 2026-05-01 10:34 | 45.98539 | 13.87661 | 35366 ft | 444 kts | 121° |
| 2026-05-01 10:35 | 45.92469 | 13.97783 | 35403 ft | 448 kts | 124° |
| 2026-05-01 10:35 | 45.88273 | 14.04389 | 35380 ft | 446 kts | 124° |
| 2026-05-01 10:36 | 45.82055 | 14.14243 | 35383 ft | 441 kts | 123° |
| 2026-05-01 10:37 | 45.77954 | 14.20776 | 35368 ft | 439 kts | 123° |
| 2026-05-01 10:37 | 45.71861 | 14.30467 | 35380 ft | 437 kts | 123° |
| 2026-05-01 10:38 | 45.67790 | 14.36923 | 35384 ft | 437 kts | 123° |
| 2026-05-01 10:38 | 45.63709 | 14.43379 | 35376 ft | 437 kts | 123° |
| 2026-05-01 10:39 | 45.59630 | 14.49814 | 35374 ft | 437 kts | 123° |
| 2026-05-01 10:39 | 45.55541 | 14.56250 | 35383 ft | 437 kts | 123° |
| 2026-05-01 10:40 | 45.51434 | 14.62701 | 35379 ft | 439 kts | 124° |
| 2026-05-01 10:40 | 45.47340 | 14.69115 | 35375 ft | 440 kts | 124° |
| 2026-05-01 10:41 | 45.43208 | 14.75573 | 35357 ft | 441 kts | 124° |
| 2026-05-01 10:42 | 45.36992 | 14.85257 | 35378 ft | 442 kts | 124° |
| 2026-05-01 10:42 | 45.32826 | 14.91733 | 35368 ft | 444 kts | 125° |
| 2026-05-01 10:43 | 45.28643 | 14.98217 | 35368 ft | 445 kts | 125° |
| 2026-05-01 10:43 | 45.24451 | 15.04699 | 35373 ft | 446 kts | 125° |
| 2026-05-01 10:44 | 45.20255 | 15.11172 | 35370 ft | 446 kts | 125° |
| 2026-05-01 10:44 | 45.16083 | 15.17592 | 35363 ft | 445 kts | 125° |
| 2026-05-01 10:45 | 45.11867 | 15.24067 | 35377 ft | 444 kts | 125° |
| 2026-05-01 10:45 | 45.07698 | 15.30455 | 35377 ft | 445 kts | 125° |
| 2026-05-01 10:46 | 45.03494 | 15.36882 | 35369 ft | 445 kts | 125° |
| 2026-05-01 10:46 | 44.99275 | 15.43317 | 35361 ft | 445 kts | 125° |
| 2026-05-01 10:47 | 44.95061 | 15.49727 | 35372 ft | 444 kts | 125° |
| 2026-05-01 10:47 | 44.90889 | 15.56059 | 35370 ft | 443 kts | 125° |
| 2026-05-01 10:48 | 44.86690 | 15.62421 | 35361 ft | 443 kts | 125° |
| 2026-05-01 10:48 | 44.82495 | 15.68763 | 35358 ft | 441 kts | 125° |
| 2026-05-01 10:49 | 44.78309 | 15.75076 | 35397 ft | 440 kts | 126° |
| 2026-05-01 10:49 | 44.74183 | 15.81451 | 35357 ft | 439 kts | 124° |
| 2026-05-01 10:50 | 44.70181 | 15.87960 | 35357 ft | 442 kts | 124° |
| 2026-05-01 10:50 | 44.66124 | 15.94573 | 35515 ft | 450 kts | 124° |
| 2026-05-01 10:50 | 44.64070 | 15.97895 | 35695 ft | 450 kts | 124° |
| 2026-05-01 10:51 | 44.62010 | 16.01211 | 35853 ft | 451 kts | 124° |
| 2026-05-01 10:51 | 44.59935 | 16.04539 | 36041 ft | 453 kts | 125° |
| 2026-05-01 10:51 | 44.57881 | 16.07830 | 36125 ft | 455 kts | 125° |
| 2026-05-01 10:51 | 44.55790 | 16.11174 | 36266 ft | 456 kts | 126° |
| 2026-05-01 10:52 | 44.53697 | 16.14516 | 36439 ft | 456 kts | 126° |
| 2026-05-01 10:52 | 44.51600 | 16.17859 | 36584 ft | 456 kts | 126° |
| 2026-05-01 10:52 | 44.49498 | 16.21209 | 36670 ft | 458 kts | 126° |
| 2026-05-01 10:52 | 44.47391 | 16.24564 | 36804 ft | 458 kts | 126° |
| 2026-05-01 10:53 | 44.45286 | 16.27913 | 36958 ft | 458 kts | 126° |
| 2026-05-01 10:53 | 44.43176 | 16.31264 | 37086 ft | 459 kts | 126° |
| 2026-05-01 10:53 | 44.41063 | 16.34616 | 37243 ft | 459 kts | 127° |
| 2026-05-01 10:54 | 44.36854 | 16.41284 | 37323 ft | 462 kts | 127° |
| 2026-05-01 10:54 | 44.32579 | 16.48041 | 37338 ft | 465 kts | 127° |
| 2026-05-01 10:55 | 44.28274 | 16.54826 | 37320 ft | 468 kts | 127° |
| 2026-05-01 10:55 | 44.23946 | 16.61632 | 37331 ft | 469 kts | 127° |
| 2026-05-01 10:56 | 44.19602 | 16.68445 | 37321 ft | 469 kts | 127° |
| 2026-05-01 10:56 | 44.15265 | 16.75230 | 37309 ft | 468 kts | 127° |
| 2026-05-01 10:57 | 44.10965 | 16.81943 | 37286 ft | 467 kts | 128° |
| 2026-05-01 10:57 | 44.06638 | 16.88681 | 37332 ft | 465 kts | 128° |
| 2026-05-01 10:58 | 44.02325 | 16.95384 | 37306 ft | 464 kts | 128° |
| 2026-05-01 10:58 | 43.98014 | 17.02067 | 37297 ft | 464 kts | 128° |
| 2026-05-01 10:59 | 43.93740 | 17.08679 | 37307 ft | 463 kts | 128° |
| 2026-05-01 10:59 | 43.89425 | 17.15336 | 37290 ft | 464 kts | 129° |
| 2026-05-01 11:00 | 43.85107 | 17.21985 | 37296 ft | 464 kts | 129° |
| 2026-05-01 11:00 | 43.80769 | 17.28648 | 37292 ft | 468 kts | 129° |
| 2026-05-01 11:01 | 43.76381 | 17.35373 | 37288 ft | 472 kts | 129° |
| 2026-05-01 11:01 | 43.71959 | 17.42131 | 37268 ft | 474 kts | 129° |
| 2026-05-01 11:02 | 43.67541 | 17.48869 | 37269 ft | 477 kts | 128° |
| 2026-05-01 11:02 | 43.63083 | 17.55651 | 37256 ft | 476 kts | 129° |
| 2026-05-01 11:03 | 43.58674 | 17.62344 | 37245 ft | 466 kts | 130° |
| 2026-05-01 11:03 | 43.54271 | 17.68798 | 37242 ft | 461 kts | 134° |
| 2026-05-01 11:04 | 43.49566 | 17.74887 | 37283 ft | 466 kts | 135° |
| 2026-05-01 11:04 | 43.44745 | 17.80978 | 37263 ft | 474 kts | 135° |
| 2026-05-01 11:05 | 43.39918 | 17.87121 | 37204 ft | 476 kts | 134° |
| 2026-05-01 11:05 | 43.35063 | 17.93335 | 37206 ft | 478 kts | 134° |
| 2026-05-01 11:06 | 43.30201 | 17.99561 | 37227 ft | 478 kts | 135° |
| 2026-05-01 11:06 | 43.25328 | 18.05786 | 37229 ft | 478 kts | 135° |
| 2026-05-01 11:07 | 43.18032 | 18.15074 | 37210 ft | 479 kts | 135° |
| 2026-05-01 11:07 | 43.13146 | 18.21277 | 37206 ft | 479 kts | 135° |
| 2026-05-01 11:08 | 43.08262 | 18.27463 | 37214 ft | 478 kts | 136° |
| 2026-05-01 11:09 | 43.00945 | 18.36703 | 37191 ft | 476 kts | 136° |
| 2026-05-01 11:09 | 42.96080 | 18.42830 | 37217 ft | 474 kts | 136° |
| 2026-05-01 11:10 | 42.88793 | 18.51982 | 37201 ft | 474 kts | 137° |
| 2026-05-01 11:10 | 42.83928 | 18.58075 | 37194 ft | 475 kts | 137° |
| 2026-05-01 11:11 | 42.79093 | 18.64118 | 37185 ft | 476 kts | 137° |
| 2026-05-01 11:11 | 42.74203 | 18.70214 | 37183 ft | 477 kts | 137° |
| 2026-05-01 11:12 | 42.69302 | 18.76310 | 37198 ft | 478 kts | 137° |
| 2026-05-01 11:12 | 42.64384 | 18.82415 | 37175 ft | 480 kts | 137° |
| 2026-05-01 11:13 | 42.59445 | 18.88532 | 37178 ft | 480 kts | 137° |
| 2026-05-01 11:13 | 42.54494 | 18.94650 | 37183 ft | 481 kts | 138° |
| 2026-05-01 11:14 | 42.49568 | 19.00723 | 37176 ft | 481 kts | 138° |
| 2026-05-01 11:14 | 42.44609 | 19.06824 | 37176 ft | 481 kts | 138° |
| 2026-05-01 11:15 | 42.39655 | 19.12905 | 37189 ft | 480 kts | 138° |
| 2026-05-01 11:15 | 42.35542 | 19.17944 | 37190 ft | 479 kts | 139° |
| 2026-05-01 11:16 | 42.30590 | 19.24000 | 37181 ft | 479 kts | 139° |
| 2026-05-01 11:16 | 42.25652 | 19.30025 | 37185 ft | 477 kts | 139° |
| 2026-05-01 11:17 | 42.20857 | 19.36214 | 37184 ft | 477 kts | 133° |
| 2026-05-01 11:17 | 42.16498 | 19.42959 | 37181 ft | 476 kts | 130° |
| 2026-05-01 11:18 | 42.12228 | 19.49720 | 37175 ft | 476 kts | 131° |
| 2026-05-01 11:18 | 42.07887 | 19.56486 | 37184 ft | 477 kts | 132° |
| 2026-05-01 11:19 | 42.03511 | 19.63217 | 37181 ft | 478 kts | 132° |
| 2026-05-01 11:19 | 41.99140 | 19.69905 | 37181 ft | 479 kts | 132° |
| 2026-05-01 11:20 | 41.94721 | 19.76651 | 37177 ft | 481 kts | 132° |
| 2026-05-01 11:20 | 41.90283 | 19.83415 | 37154 ft | 483 kts | 133° |
| 2026-05-01 11:21 | 41.85828 | 19.90189 | 37168 ft | 485 kts | 133° |
| 2026-05-01 11:21 | 41.81356 | 19.96975 | 37147 ft | 486 kts | 133° |
| 2026-05-01 11:22 | 41.76893 | 20.03733 | 37160 ft | 487 kts | 133° |
| 2026-05-01 11:22 | 41.72385 | 20.10542 | 37155 ft | 488 kts | 133° |
| 2026-05-01 11:23 | 41.67878 | 20.17334 | 37158 ft | 488 kts | 133° |
| 2026-05-01 11:23 | 41.63371 | 20.24112 | 37166 ft | 487 kts | 133° |
| 2026-05-01 11:24 | 41.58867 | 20.30869 | 37142 ft | 486 kts | 133° |
| 2026-05-01 11:25 | 41.52153 | 20.40913 | 37147 ft | 481 kts | 134° |
| 2026-05-01 11:25 | 41.45488 | 20.50850 | 37180 ft | 480 kts | 134° |
| 2026-05-01 11:26 | 41.38776 | 20.60821 | 37194 ft | 483 kts | 134° |
| 2026-05-01 11:27 | 41.34296 | 20.67459 | 37179 ft | 485 kts | 134° |
| 2026-05-01 11:27 | 41.29773 | 20.74148 | 37185 ft | 487 kts | 134° |
| 2026-05-01 11:28 | 41.25222 | 20.80862 | 37189 ft | 488 kts | 134° |
| 2026-05-01 11:28 | 41.20654 | 20.87584 | 37186 ft | 491 kts | 134° |
| 2026-05-01 11:29 | 41.13769 | 20.97690 | 37185 ft | 493 kts | 134° |
| 2026-05-01 11:30 | 41.06865 | 21.07791 | 37196 ft | 493 kts | 134° |
| 2026-05-01 11:30 | 41.02263 | 21.14505 | 37183 ft | 492 kts | 135° |
| 2026-05-01 11:31 | 40.97662 | 21.21202 | 37200 ft | 491 kts | 135° |
| 2026-05-01 11:31 | 40.93060 | 21.27888 | 37203 ft | 491 kts | 135° |
| 2026-05-01 11:32 | 40.88474 | 21.34510 | 37204 ft | 489 kts | 137° |
| 2026-05-01 11:32 | 40.83248 | 21.40089 | 37224 ft | 481 kts | 149° |
| 2026-05-01 11:33 | 40.77747 | 21.45094 | 37208 ft | 480 kts | 149° |
| 2026-05-01 11:33 | 40.72256 | 21.50096 | 37204 ft | 480 kts | 149° |
| 2026-05-01 11:34 | 40.66781 | 21.55140 | 37202 ft | 480 kts | 149° |
| 2026-05-01 11:34 | 40.61348 | 21.60166 | 37201 ft | 480 kts | 149° |
| 2026-05-01 11:35 | 40.55872 | 21.65227 | 37207 ft | 481 kts | 149° |
| 2026-05-01 11:35 | 40.50370 | 21.70300 | 37190 ft | 482 kts | 149° |
| 2026-05-01 11:36 | 40.44870 | 21.75360 | 37212 ft | 483 kts | 149° |
| 2026-05-01 11:36 | 40.39362 | 21.80414 | 37206 ft | 483 kts | 149° |
| 2026-05-01 11:37 | 40.33877 | 21.85438 | 37216 ft | 484 kts | 149° |
| 2026-05-01 11:37 | 40.28336 | 21.90503 | 37213 ft | 485 kts | 149° |
| 2026-05-01 11:38 | 40.22793 | 21.95560 | 37209 ft | 486 kts | 150° |
| 2026-05-01 11:38 | 40.17237 | 22.00618 | 37213 ft | 487 kts | 150° |
| 2026-05-01 11:39 | 40.11656 | 22.05687 | 37206 ft | 489 kts | 150° |
| 2026-05-01 11:39 | 40.06068 | 22.10754 | 37209 ft | 489 kts | 150° |
| 2026-05-01 11:40 | 40.00477 | 22.15814 | 37190 ft | 489 kts | 150° |
| 2026-05-01 11:40 | 39.94886 | 22.20863 | 37221 ft | 489 kts | 150° |
| 2026-05-01 11:41 | 39.89287 | 22.25909 | 37225 ft | 489 kts | 150° |
| 2026-05-01 11:41 | 39.83722 | 22.30912 | 37221 ft | 489 kts | 150° |
| 2026-05-01 11:42 | 39.78121 | 22.35939 | 37216 ft | 489 kts | 151° |
| 2026-05-01 11:42 | 39.72523 | 22.40955 | 37217 ft | 488 kts | 151° |
| 2026-05-01 11:43 | 39.66930 | 22.45955 | 37222 ft | 488 kts | 151° |
| 2026-05-01 11:43 | 39.61332 | 22.50949 | 37224 ft | 488 kts | 152° |
| 2026-05-01 11:44 | 39.52941 | 22.58416 | 37222 ft | 488 kts | 152° |
| 2026-05-01 11:44 | 39.47350 | 22.63379 | 37217 ft | 488 kts | 152° |
| 2026-05-01 11:45 | 39.41744 | 22.68345 | 37221 ft | 488 kts | 152° |
| 2026-05-01 11:45 | 39.36127 | 22.73312 | 37237 ft | 489 kts | 152° |
| 2026-05-01 11:46 | 39.30504 | 22.78273 | 37241 ft | 490 kts | 152° |
| 2026-05-01 11:46 | 39.24897 | 22.83211 | 37216 ft | 491 kts | 153° |
| 2026-05-01 11:47 | 39.19241 | 22.88182 | 37234 ft | 492 kts | 153° |
| 2026-05-01 11:47 | 39.13576 | 22.93151 | 37236 ft | 493 kts | 153° |
| 2026-05-01 11:48 | 39.07898 | 22.98123 | 37219 ft | 494 kts | 153° |
| 2026-05-01 11:48 | 39.02213 | 23.03090 | 37227 ft | 494 kts | 153° |
| 2026-05-01 11:49 | 38.96558 | 23.08023 | 37196 ft | 494 kts | 153° |
| 2026-05-01 11:49 | 38.90861 | 23.12980 | 37217 ft | 495 kts | 153° |
| 2026-05-01 11:50 | 38.85150 | 23.17939 | 37207 ft | 496 kts | 153° |
| 2026-05-01 11:50 | 38.79427 | 23.22900 | 37199 ft | 497 kts | 153° |
| 2026-05-01 11:51 | 38.73697 | 23.27859 | 37142 ft | 496 kts | 153° |
| 2026-05-01 11:51 | 38.67981 | 23.32797 | 37191 ft | 494 kts | 154° |
| 2026-05-01 11:52 | 38.62280 | 23.37710 | 37194 ft | 494 kts | 154° |
| 2026-05-01 11:52 | 38.56579 | 23.42612 | 37175 ft | 494 kts | 154° |
| 2026-05-01 11:53 | 38.50907 | 23.47482 | 37195 ft | 493 kts | 154° |
| 2026-05-01 11:53 | 38.45208 | 23.52364 | 37132 ft | 493 kts | 155° |
| 2026-05-01 11:54 | 38.42355 | 23.54806 | 36884 ft | 492 kts | 155° |
| 2026-05-01 11:54 | 38.39526 | 23.57227 | 36616 ft | 487 kts | 155° |
| 2026-05-01 11:54 | 38.36729 | 23.59621 | 36370 ft | 482 kts | 155° |
| 2026-05-01 11:54 | 38.33954 | 23.61991 | 36122 ft | 478 kts | 155° |
| 2026-05-01 11:55 | 38.31194 | 23.64342 | 35885 ft | 476 kts | 156° |
| 2026-05-01 11:55 | 38.28445 | 23.66681 | 35632 ft | 473 kts | 156° |
| 2026-05-01 11:55 | 38.25744 | 23.68977 | 35388 ft | 472 kts | 156° |
| 2026-05-01 11:55 | 38.22989 | 23.71317 | 35151 ft | 470 kts | 156° |
| 2026-05-01 11:56 | 38.20297 | 23.73602 | 34920 ft | 469 kts | 156° |
| 2026-05-01 11:56 | 38.17600 | 23.75893 | 34628 ft | 464 kts | 156° |
| 2026-05-01 11:56 | 38.14923 | 23.78187 | 34190 ft | 464 kts | 156° |
| 2026-05-01 11:56 | 38.12257 | 23.80519 | 33734 ft | 464 kts | 155° |
| 2026-05-01 11:57 | 38.09622 | 23.82851 | 33335 ft | 462 kts | 155° |
| 2026-05-01 11:57 | 38.07876 | 23.84399 | 33166 ft | 458 kts | 155° |
| 2026-05-01 11:57 | 38.01842 | 23.89732 | 33157 ft | 453 kts | 156° |
| 2026-05-01 11:58 | 37.96602 | 23.94317 | 33173 ft | 458 kts | 156° |
| 2026-05-01 11:59 | 37.88699 | 24.01221 | 33160 ft | 463 kts | 155° |
| 2026-05-01 11:59 | 37.83448 | 24.05818 | 33136 ft | 454 kts | 156° |
| 2026-05-01 12:00 | 37.75624 | 24.12625 | 33153 ft | 457 kts | 156° |
| 2026-05-01 12:01 | 37.67772 | 24.19442 | 33096 ft | 460 kts | 156° |
| 2026-05-01 12:01 | 37.62491 | 24.24023 | 33123 ft | 461 kts | 155° |
| 2026-05-01 12:02 | 37.57204 | 24.28598 | 33124 ft | 462 kts | 155° |
| 2026-05-01 12:02 | 37.52210 | 24.33924 | 33119 ft | 476 kts | 143° |
| 2026-05-01 12:03 | 37.47541 | 24.39858 | 33099 ft | 475 kts | 142° |
| 2026-05-01 12:03 | 37.42908 | 24.45743 | 33106 ft | 471 kts | 143° |
| 2026-05-01 12:04 | 37.38241 | 24.51349 | 32837 ft | 457 kts | 149° |
| 2026-05-01 12:04 | 37.35781 | 24.53869 | 32389 ft | 454 kts | 151° |
| 2026-05-01 12:04 | 37.33284 | 24.56310 | 31833 ft | 456 kts | 152° |
| 2026-05-01 12:04 | 37.30764 | 24.58742 | 31369 ft | 456 kts | 152° |
| 2026-05-01 12:05 | 37.29101 | 24.60352 | 31132 ft | 455 kts | 152° |
| 2026-05-01 12:05 | 37.24143 | 24.65213 | 30468 ft | 449 kts | 151° |
| 2026-05-01 12:05 | 37.21694 | 24.67636 | 30117 ft | 448 kts | 151° |
| 2026-05-01 12:06 | 37.19252 | 24.70060 | 29714 ft | 445 kts | 150° |
| 2026-05-01 12:06 | 37.16833 | 24.72465 | 29366 ft | 441 kts | 150° |
| 2026-05-01 12:06 | 37.14437 | 24.74847 | 29011 ft | 437 kts | 150° |
| 2026-05-01 12:06 | 37.12063 | 24.77204 | 28644 ft | 434 kts | 150° |
| 2026-05-01 12:07 | 37.09701 | 24.79546 | 28265 ft | 431 kts | 150° |
| 2026-05-01 12:07 | 37.07363 | 24.81863 | 27956 ft | 426 kts | 150° |
| 2026-05-01 12:07 | 37.05045 | 24.84157 | 27619 ft | 423 kts | 150° |
| 2026-05-01 12:07 | 37.02776 | 24.86399 | 27289 ft | 420 kts | 150° |
| 2026-05-01 12:08 | 37.00491 | 24.88655 | 26986 ft | 417 kts | 150° |
| 2026-05-01 12:08 | 36.98221 | 24.90895 | 26656 ft | 414 kts | 150° |
| 2026-05-01 12:08 | 36.95968 | 24.93115 | 26331 ft | 411 kts | 150° |
| 2026-05-01 12:08 | 36.93729 | 24.95321 | 26009 ft | 408 kts | 150° |
| 2026-05-01 12:09 | 36.91505 | 24.97512 | 25698 ft | 405 kts | 149° |
| 2026-05-01 12:09 | 36.89300 | 24.99680 | 25387 ft | 402 kts | 149° |
| 2026-05-01 12:09 | 36.87107 | 25.01836 | 25060 ft | 399 kts | 149° |
| 2026-05-01 12:09 | 36.84930 | 25.03975 | 24765 ft | 396 kts | 149° |
| 2026-05-01 12:10 | 36.82776 | 25.06089 | 24470 ft | 393 kts | 149° |
| 2026-05-01 12:10 | 36.78525 | 25.10256 | 23798 ft | 389 kts | 149° |
| 2026-05-01 12:10 | 36.76399 | 25.12339 | 23492 ft | 386 kts | 149° |
| 2026-05-01 12:11 | 36.72232 | 25.16419 | 22582 ft | 378 kts | 149° |
| 2026-05-01 12:11 | 36.70168 | 25.18436 | 22098 ft | 376 kts | 149° |
| 2026-05-01 12:11 | 36.68123 | 25.20434 | 21654 ft | 372 kts | 149° |
| 2026-05-01 12:12 | 36.66099 | 25.22410 | 21214 ft | 367 kts | 149° |
| 2026-05-01 12:12 | 36.64099 | 25.24362 | 20762 ft | 363 kts | 149° |
| 2026-05-01 12:12 | 36.62124 | 25.26288 | 20362 ft | 357 kts | 149° |
| 2026-05-01 12:12 | 36.60187 | 25.28177 | 19988 ft | 351 kts | 149° |
| 2026-05-01 12:13 | 36.58277 | 25.30037 | 19557 ft | 347 kts | 149° |
| 2026-05-01 12:13 | 36.56376 | 25.31884 | 19112 ft | 344 kts | 149° |
| 2026-05-01 12:13 | 36.54498 | 25.33708 | 18688 ft | 341 kts | 148° |
| 2026-05-01 12:13 | 36.52635 | 25.35517 | 18243 ft | 338 kts | 148° |
| 2026-05-01 12:14 | 36.50790 | 25.37309 | 17754 ft | 335 kts | 148° |
| 2026-05-01 12:14 | 36.48949 | 25.39095 | 17269 ft | 333 kts | 148° |
| 2026-05-01 12:14 | 36.47127 | 25.40862 | 16782 ft | 331 kts | 148° |
| 2026-05-01 12:14 | 36.45323 | 25.42611 | 16289 ft | 328 kts | 148° |
| 2026-05-01 12:15 | 36.43525 | 25.44353 | 15768 ft | 327 kts | 148° |
| 2026-05-01 12:15 | 36.42679 | 25.45172 | 15548 ft | 325 kts | 148° |
| 2026-05-01 12:16 | 36.41624 | 25.46194 | 15364 ft | 321 kts | 148° |
| 2026-05-01 12:16 | 36.39900 | 25.47865 | 15184 ft | 309 kts | 148° |
| 2026-05-01 12:16 | 36.38364 | 25.49696 | 14869 ft | 310 kts | 126° |
| 2026-05-01 12:17 | 36.37648 | 25.52221 | 14450 ft | 315 kts | 92° |
| 2026-05-01 12:17 | 36.38039 | 25.54842 | 14033 ft | 309 kts | 58° |
| 2026-05-01 12:17 | 36.39393 | 25.56787 | 13566 ft | 293 kts | 24° |
| 2026-05-01 12:17 | 36.41222 | 25.57701 | 13151 ft | 279 kts | 8° |
| 2026-05-01 12:18 | 36.43093 | 25.58182 | 12735 ft | 271 kts | 357° |
| 2026-05-01 12:18 | 36.44931 | 25.58056 | 12312 ft | 259 kts | 339° |
| 2026-05-01 12:18 | 36.46581 | 25.57293 | 11929 ft | 249 kts | 326° |
| 2026-05-01 12:18 | 36.47960 | 25.56099 | 11526 ft | 241 kts | 310° |
| 2026-05-01 12:19 | 36.48949 | 25.54462 | 11131 ft | 235 kts | 299° |
| 2026-05-01 12:19 | 36.49825 | 25.52745 | 10743 ft | 235 kts | 299° |
| 2026-05-01 12:19 | 36.50691 | 25.51033 | 10384 ft | 234 kts | 299° |
| 2026-05-01 12:19 | 36.51552 | 25.49324 | 10012 ft | 233 kts | 299° |
| 2026-05-01 12:20 | 36.52408 | 25.47623 | 9611 ft | 232 kts | 299° |
| 2026-05-01 12:20 | 36.53210 | 25.45891 | 9182 ft | 229 kts | 288° |
| 2026-05-01 12:20 | 36.53388 | 25.43927 | 8804 ft | 231 kts | 267° |
| 2026-05-01 12:20 | 36.53127 | 25.41964 | 8600 ft | 230 kts | 255° |
| 2026-05-01 12:21 | 36.52461 | 25.40144 | 8304 ft | 234 kts | 239° |
| 2026-05-01 12:21 | 36.51380 | 25.38641 | 8023 ft | 239 kts | 222° |
| 2026-05-01 12:21 | 36.49936 | 25.37601 | 7765 ft | 244 kts | 205° |
| 2026-05-01 12:21 | 36.48260 | 25.37185 | 7518 ft | 250 kts | 185° |
| 2026-05-01 12:22 | 36.46521 | 25.37505 | 7277 ft | 256 kts | 165° |
| 2026-05-01 12:22 | 36.44922 | 25.38480 | 7056 ft | 258 kts | 148° |
| 2026-05-01 12:22 | 36.43643 | 25.40054 | 6796 ft | 263 kts | 126° |
| 2026-05-01 12:22 | 36.42662 | 25.41958 | 6605 ft | 260 kts | 124° |
| 2026-05-01 12:23 | 36.41698 | 25.43864 | 6357 ft | 260 kts | 124° |
| 2026-05-01 12:23 | 36.40761 | 25.45727 | 6272 ft | 249 kts | 124° |
| 2026-05-01 12:23 | 36.39858 | 25.47520 | 6197 ft | 240 kts | 124° |
| 2026-05-01 12:23 | 36.38981 | 25.49258 | 6002 ft | 237 kts | 125° |
| 2026-05-01 12:24 | 36.38265 | 25.50338 | 5953 ft | 227 kts | 143° |
| 2026-05-01 12:24 | 36.37054 | 25.51582 | 5737 ft | 228 kts | 143° |
| 2026-05-01 12:24 | 36.35839 | 25.52837 | 5590 ft | 227 kts | 143° |
| 2026-05-01 12:24 | 36.34621 | 25.54091 | 5361 ft | 227 kts | 142° |
| 2026-05-01 12:25 | 36.33414 | 25.55327 | 5106 ft | 222 kts | 143° |
| 2026-05-01 12:25 | 36.31071 | 25.57704 | 4445 ft | 218 kts | 142° |
| 2026-05-01 12:25 | 36.29882 | 25.58872 | 4102 ft | 217 kts | 142° |
| 2026-05-01 12:26 | 36.28678 | 25.60004 | 3734 ft | 217 kts | 142° |
| 2026-05-01 12:26 | 36.26176 | 25.62000 | 3238 ft | 205 kts | 165° |
| 2026-05-01 12:26 | 36.24800 | 25.61887 | 2877 ft | 202 kts | 207° |
| 2026-05-01 12:27 | 36.23810 | 25.60804 | 2720 ft | 179 kts | 243° |
| 2026-05-01 12:27 | 36.23625 | 25.57913 | 2042 ft | 169 kts | 299° |
| 2026-05-01 12:28 | 36.25099 | 25.56168 | 2132 ft | 147 kts | 340° |
| 2026-05-01 12:28 | 36.26071 | 25.55673 | 1982 ft | 152 kts | 339° |
| 2026-05-01 12:28 | 36.27936 | 25.54632 | 1860 ft | 145 kts | 338° |
| 2026-05-01 12:29 | 36.28861 | 25.54094 | 1775 ft | 147 kts | 338° |
| 2026-05-01 12:29 | 36.29783 | 25.53565 | 1735 ft | 146 kts | 338° |
| 2026-05-01 12:29 | 36.31585 | 25.52517 | 1605 ft | 140 kts | 338° |
| 2026-05-01 12:30 | 36.33413 | 25.51546 | 1497 ft | 142 kts | 341° |
| 2026-05-01 12:30 | 36.34341 | 25.51075 | 1299 ft | 143 kts | 341° |
| 2026-05-01 12:30 | 36.35271 | 25.50597 | 1029 ft | 148 kts | 336° |
| 2026-05-01 12:31 | 36.36102 | 25.49906 | 852 ft | 144 kts | 327° |
| 2026-05-01 12:31 | 36.36963 | 25.49304 | 593 ft | 142 kts | 338° |
| 2026-05-01 12:31 | 36.37870 | 25.48879 | 355 ft | 136 kts | 339° |
| 2026-05-01 12:31 | 36.38745 | 25.48468 | 160 ft | 134 kts | 338° |
| 2026-05-01 12:32 | 36.39590 | 25.48070 | 87 ft | 116 kts | 339° |
| 2026-05-01 12:32 | 36.40312 | 25.47732 | 111 ft | 22 kts | 339° |
| 2026-05-01 12:32 | 36.40440 | 25.47672 | 112 ft | 15 kts | 337° |
| 2026-05-01 12:33 | 36.40454 | 25.47568 | 117 ft | 9 kts | 249° |
| 2026-05-01 12:33 | 36.40434 | 25.47498 | 115 ft | 8 kts | 251° |
| 2026-05-01 12:33 | 36.40417 | 25.47441 | 116 ft | 6 kts | 238° |
| 2026-05-01 12:33 | 36.40397 | 25.47398 | 116 ft | 5 kts | 246° |
| 2026-05-01 12:34 | 36.40388 | 25.47370 | 114 ft | 1 kts | 249° |
| 2026-05-01 12:34 | 36.40387 | 25.47366 | 114 ft | 0 kts | 250° |